FDX721 KMEM-KEWR
Flight info
| Callsign | FDX721 |
|---|---|
| Flight time | 1h 36m |
| Altitude | 33000 |
| Route | GOETZ7 DIYAB HITMN Q34 GVE PHLBO4 |
| Aircraft | B77L/H-SDE1E2E3FGHIJ2J3J4J5M1RWXY/LB1D1 |
Departure
| Time | 2026-05-07 16:27 |
|---|---|
| Airport | Memphis International Airport (KMEM) |
Arrival
| Time | 2026-05-07 18:03 |
|---|---|
| Airport | Newark Liberty International Airport (KEWR) |
| Time | Latitude | Longitude | Altitude | Speed | Heading |
|---|---|---|---|---|---|
| 2026-05-07 15:58 | 35.06023 | -89.97354 | 334 ft | 0 kts | 1° |
| 2026-05-07 16:12 | 35.06009 | -89.97354 | 335 ft | 4 kts | 1° |
| 2026-05-07 16:12 | 35.05982 | -89.97355 | 334 ft | 4 kts | 1° |
| 2026-05-07 16:12 | 35.05960 | -89.97357 | 334 ft | 4 kts | 25° |
| 2026-05-07 16:13 | 35.05943 | -89.97377 | 335 ft | 4 kts | 73° |
| 2026-05-07 16:13 | 35.05940 | -89.97408 | 335 ft | 4 kts | 91° |
| 2026-05-07 16:13 | 35.05941 | -89.97441 | 334 ft | 4 kts | 95° |
| 2026-05-07 16:13 | 35.05944 | -89.97474 | 332 ft | 4 kts | 97° |
| 2026-05-07 16:14 | 35.05948 | -89.97506 | 330 ft | 4 kts | 100° |
| 2026-05-07 16:14 | 35.05953 | -89.97539 | 330 ft | 4 kts | 103° |
| 2026-05-07 16:14 | 35.05960 | -89.97570 | 330 ft | 4 kts | 105° |
| 2026-05-07 16:14 | 35.05963 | -89.97583 | 330 ft | 0 kts | 105° |
| 2026-05-07 16:19 | 35.05953 | -89.97541 | 330 ft | 0 kts | 107° |
| 2026-05-07 16:20 | 35.05952 | -89.97540 | 330 ft | 1 kts | 107° |
| 2026-05-07 16:20 | 35.05911 | -89.97513 | 330 ft | 13 kts | 159° |
| 2026-05-07 16:21 | 35.05787 | -89.97483 | 333 ft | 20 kts | 178° |
| 2026-05-07 16:21 | 35.05684 | -89.97503 | 332 ft | 15 kts | 219° |
| 2026-05-07 16:21 | 35.05670 | -89.97625 | 335 ft | 15 kts | 271° |
| 2026-05-07 16:21 | 35.05674 | -89.97758 | 335 ft | 16 kts | 272° |
| 2026-05-07 16:22 | 35.05678 | -89.97897 | 335 ft | 17 kts | 271° |
| 2026-05-07 16:22 | 35.05683 | -89.98055 | 332 ft | 19 kts | 272° |
| 2026-05-07 16:22 | 35.05687 | -89.98219 | 334 ft | 19 kts | 272° |
| 2026-05-07 16:22 | 35.05692 | -89.98378 | 331 ft | 17 kts | 271° |
| 2026-05-07 16:23 | 35.05699 | -89.98485 | 331 ft | 9 kts | 295° |
| 2026-05-07 16:23 | 35.05749 | -89.98505 | 331 ft | 0 kts | 358° |
| 2026-05-07 16:24 | 35.05768 | -89.98505 | 331 ft | 6 kts | 359° |
| 2026-05-07 16:24 | 35.05831 | -89.98502 | 331 ft | 11 kts | 15° |
| 2026-05-07 16:24 | 35.05858 | -89.98428 | 334 ft | 1 kts | 92° |
| 2026-05-07 16:25 | 35.05858 | -89.98427 | 334 ft | 0 kts | 92° |
| 2026-05-07 16:26 | 35.05857 | -89.98394 | 334 ft | 18 kts | 92° |
| 2026-05-07 16:26 | 35.05844 | -89.97897 | 334 ft | 96 kts | 92° |
| 2026-05-07 16:26 | 35.05813 | -89.96821 | 330 ft | 159 kts | 91° |
| 2026-05-07 16:27 | 35.05773 | -89.95316 | 631 ft | 182 kts | 90° |
| 2026-05-07 16:27 | 35.05768 | -89.93777 | 1390 ft | 185 kts | 86° |
| 2026-05-07 16:27 | 35.05812 | -89.92230 | 2141 ft | 182 kts | 83° |
| 2026-05-07 16:27 | 35.05917 | -89.90612 | 2428 ft | 202 kts | 77° |
| 2026-05-07 16:28 | 35.06270 | -89.88863 | 2591 ft | 224 kts | 71° |
| 2026-05-07 16:28 | 35.06740 | -89.86943 | 2989 ft | 244 kts | 71° |
| 2026-05-07 16:28 | 35.07236 | -89.84922 | 3676 ft | 253 kts | 71° |
| 2026-05-07 16:28 | 35.07743 | -89.82812 | 4318 ft | 264 kts | 71° |
| 2026-05-07 16:29 | 35.08265 | -89.80618 | 4941 ft | 274 kts | 71° |
| 2026-05-07 16:29 | 35.08802 | -89.78346 | 5592 ft | 283 kts | 72° |
| 2026-05-07 16:29 | 35.09351 | -89.76006 | 6247 ft | 291 kts | 72° |
| 2026-05-07 16:29 | 35.09913 | -89.73592 | 6884 ft | 300 kts | 72° |
| 2026-05-07 16:30 | 35.10488 | -89.71109 | 7542 ft | 306 kts | 72° |
| 2026-05-07 16:30 | 35.11066 | -89.68578 | 8188 ft | 313 kts | 72° |
| 2026-05-07 16:30 | 35.11657 | -89.65991 | 8800 ft | 321 kts | 72° |
| 2026-05-07 16:30 | 35.12263 | -89.63337 | 9418 ft | 327 kts | 72° |
| 2026-05-07 16:31 | 35.12882 | -89.60629 | 10044 ft | 334 kts | 72° |
| 2026-05-07 16:31 | 35.13516 | -89.57853 | 10492 ft | 347 kts | 72° |
| 2026-05-07 16:31 | 35.14188 | -89.54911 | 10654 ft | 372 kts | 72° |
| 2026-05-07 16:31 | 35.14903 | -89.51774 | 10854 ft | 396 kts | 73° |
| 2026-05-07 16:32 | 35.15661 | -89.48440 | 11108 ft | 418 kts | 73° |
| 2026-05-07 16:32 | 35.16447 | -89.44966 | 11626 ft | 430 kts | 73° |
| 2026-05-07 16:32 | 35.17253 | -89.41400 | 12305 ft | 439 kts | 73° |
| 2026-05-07 16:32 | 35.18069 | -89.37777 | 13128 ft | 445 kts | 73° |
| 2026-05-07 16:33 | 35.18897 | -89.34100 | 13904 ft | 452 kts | 73° |
| 2026-05-07 16:33 | 35.19740 | -89.30358 | 14570 ft | 460 kts | 73° |
| 2026-05-07 16:33 | 35.20596 | -89.26559 | 15211 ft | 468 kts | 73° |
| 2026-05-07 16:33 | 35.21466 | -89.22688 | 15853 ft | 476 kts | 73° |
| 2026-05-07 16:34 | 35.22397 | -89.18769 | 16493 ft | 483 kts | 71° |
| 2026-05-07 16:34 | 35.23436 | -89.14831 | 17112 ft | 491 kts | 70° |
| 2026-05-07 16:34 | 35.24565 | -89.10862 | 17751 ft | 497 kts | 67° |
| 2026-05-07 16:34 | 35.25946 | -89.06985 | 18496 ft | 498 kts | 62° |
| 2026-05-07 16:35 | 35.27431 | -89.03131 | 19080 ft | 504 kts | 62° |
| 2026-05-07 16:35 | 35.28943 | -88.99236 | 19613 ft | 510 kts | 62° |
| 2026-05-07 16:35 | 35.30472 | -88.95288 | 20162 ft | 517 kts | 62° |
| 2026-05-07 16:35 | 35.32011 | -88.91288 | 20717 ft | 522 kts | 62° |
| 2026-05-07 16:36 | 35.33557 | -88.87241 | 21265 ft | 528 kts | 62° |
| 2026-05-07 16:36 | 35.35116 | -88.83136 | 21784 ft | 534 kts | 62° |
| 2026-05-07 16:36 | 35.36687 | -88.78985 | 22269 ft | 540 kts | 62° |
| 2026-05-07 16:36 | 35.38273 | -88.74786 | 22778 ft | 546 kts | 62° |
| 2026-05-07 16:37 | 35.39872 | -88.70544 | 23297 ft | 551 kts | 62° |
| 2026-05-07 16:37 | 35.41486 | -88.66260 | 23784 ft | 556 kts | 62° |
| 2026-05-07 16:37 | 35.43091 | -88.61993 | 24202 ft | 561 kts | 62° |
| 2026-05-07 16:37 | 35.44730 | -88.57632 | 24634 ft | 565 kts | 62° |
| 2026-05-07 16:38 | 35.46379 | -88.53239 | 25072 ft | 570 kts | 62° |
| 2026-05-07 16:38 | 35.48041 | -88.48808 | 25496 ft | 574 kts | 62° |
| 2026-05-07 16:38 | 35.49717 | -88.44332 | 25957 ft | 579 kts | 62° |
| 2026-05-07 16:38 | 35.51403 | -88.39823 | 26341 ft | 584 kts | 62° |
| 2026-05-07 16:39 | 35.53104 | -88.35269 | 26722 ft | 590 kts | 62° |
| 2026-05-07 16:39 | 35.54817 | -88.30676 | 27134 ft | 594 kts | 62° |
| 2026-05-07 16:39 | 35.56540 | -88.26048 | 27548 ft | 598 kts | 62° |
| 2026-05-07 16:39 | 35.58273 | -88.21386 | 27956 ft | 602 kts | 62° |
| 2026-05-07 16:40 | 35.60017 | -88.16688 | 28342 ft | 607 kts | 62° |
| 2026-05-07 16:40 | 35.61776 | -88.11943 | 28629 ft | 612 kts | 62° |
| 2026-05-07 16:40 | 35.63540 | -88.07176 | 28969 ft | 616 kts | 62° |
| 2026-05-07 16:40 | 35.65321 | -88.02356 | 29277 ft | 621 kts | 62° |
| 2026-05-07 16:41 | 35.67109 | -87.97510 | 29653 ft | 624 kts | 62° |
| 2026-05-07 16:41 | 35.68899 | -87.92648 | 30144 ft | 624 kts | 62° |
| 2026-05-07 16:41 | 35.70682 | -87.87796 | 30662 ft | 622 kts | 62° |
| 2026-05-07 16:41 | 35.72456 | -87.82960 | 31204 ft | 619 kts | 62° |
| 2026-05-07 16:42 | 35.74222 | -87.78142 | 31761 ft | 617 kts | 62° |
| 2026-05-07 16:42 | 35.75989 | -87.73317 | 32122 ft | 619 kts | 62° |
| 2026-05-07 16:42 | 35.77756 | -87.68486 | 32498 ft | 619 kts | 62° |
| 2026-05-07 16:42 | 35.79522 | -87.63647 | 32885 ft | 620 kts | 62° |
| 2026-05-07 16:43 | 35.81292 | -87.58791 | 33140 ft | 621 kts | 62° |
| 2026-05-07 16:43 | 35.84822 | -87.49086 | 33085 ft | 619 kts | 62° |
| 2026-05-07 16:44 | 35.88330 | -87.39407 | 33072 ft | 618 kts | 62° |
| 2026-05-07 16:44 | 35.91826 | -87.29733 | 33075 ft | 618 kts | 62° |
| 2026-05-07 16:45 | 35.95296 | -87.20099 | 33084 ft | 619 kts | 62° |
| 2026-05-07 16:45 | 35.98809 | -87.10320 | 33084 ft | 619 kts | 62° |
| 2026-05-07 16:46 | 36.02267 | -87.00659 | 33076 ft | 620 kts | 62° |
| 2026-05-07 16:46 | 36.05743 | -86.90921 | 33086 ft | 619 kts | 62° |
| 2026-05-07 16:47 | 36.09209 | -86.81169 | 33090 ft | 619 kts | 62° |
| 2026-05-07 16:47 | 36.12666 | -86.71429 | 33106 ft | 619 kts | 62° |
| 2026-05-07 16:48 | 36.16051 | -86.61611 | 33107 ft | 620 kts | 64° |
| 2026-05-07 16:48 | 36.19232 | -86.51685 | 33083 ft | 621 kts | 65° |
| 2026-05-07 16:49 | 36.22387 | -86.41725 | 33111 ft | 623 kts | 65° |
| 2026-05-07 16:49 | 36.25585 | -86.31740 | 33108 ft | 623 kts | 65° |
| 2026-05-07 16:50 | 36.28794 | -86.21764 | 33078 ft | 624 kts | 65° |
| 2026-05-07 16:50 | 36.32004 | -86.11753 | 33070 ft | 625 kts | 65° |
| 2026-05-07 16:51 | 36.35204 | -86.01720 | 33067 ft | 626 kts | 65° |
| 2026-05-07 16:51 | 36.38404 | -85.91668 | 33066 ft | 626 kts | 65° |
| 2026-05-07 16:52 | 36.41582 | -85.81620 | 33061 ft | 625 kts | 65° |
| 2026-05-07 16:52 | 36.44753 | -85.71539 | 33072 ft | 628 kts | 65° |
| 2026-05-07 16:53 | 36.47937 | -85.61411 | 33061 ft | 630 kts | 65° |
| 2026-05-07 16:53 | 36.51123 | -85.51260 | 33055 ft | 631 kts | 65° |
| 2026-05-07 16:54 | 36.54305 | -85.41087 | 33020 ft | 631 kts | 65° |
| 2026-05-07 16:54 | 36.57464 | -85.30905 | 33040 ft | 631 kts | 65° |
| 2026-05-07 16:55 | 36.60619 | -85.20729 | 33052 ft | 630 kts | 65° |
| 2026-05-07 16:55 | 36.63761 | -85.10556 | 33066 ft | 629 kts | 65° |
| 2026-05-07 16:56 | 36.66874 | -85.00442 | 33093 ft | 631 kts | 66° |
| 2026-05-07 16:56 | 36.71560 | -84.85143 | 33089 ft | 631 kts | 66° |
| 2026-05-07 16:57 | 36.74676 | -84.74922 | 33087 ft | 631 kts | 66° |
| 2026-05-07 16:57 | 36.77785 | -84.64686 | 33045 ft | 630 kts | 66° |
| 2026-05-07 16:58 | 36.80875 | -84.54468 | 33038 ft | 629 kts | 66° |
| 2026-05-07 16:58 | 36.83966 | -84.44247 | 33043 ft | 629 kts | 66° |
| 2026-05-07 16:59 | 36.87053 | -84.34017 | 33121 ft | 630 kts | 66° |
| 2026-05-07 16:59 | 36.90131 | -84.23763 | 33051 ft | 632 kts | 66° |
| 2026-05-07 17:00 | 36.93206 | -84.13470 | 33051 ft | 632 kts | 66° |
| 2026-05-07 17:00 | 36.96280 | -84.03160 | 33044 ft | 633 kts | 67° |
| 2026-05-07 17:01 | 36.98819 | -83.94585 | 33047 ft | 633 kts | 67° |
| 2026-05-07 17:01 | 37.01844 | -83.84304 | 33020 ft | 627 kts | 67° |
| 2026-05-07 17:02 | 37.05323 | -83.72441 | 33031 ft | 623 kts | 67° |
| 2026-05-07 17:02 | 37.08298 | -83.62251 | 33039 ft | 625 kts | 68° |
| 2026-05-07 17:03 | 37.10823 | -83.53627 | 33233 ft | 633 kts | 67° |
| 2026-05-07 17:03 | 37.12311 | -83.48516 | 33607 ft | 633 kts | 68° |
| 2026-05-07 17:03 | 37.13829 | -83.43263 | 33959 ft | 633 kts | 68° |
| 2026-05-07 17:04 | 37.15310 | -83.38133 | 34198 ft | 635 kts | 68° |
| 2026-05-07 17:04 | 37.16815 | -83.32916 | 34414 ft | 637 kts | 68° |
| 2026-05-07 17:04 | 37.18319 | -83.27683 | 34627 ft | 639 kts | 68° |
| 2026-05-07 17:04 | 37.19832 | -83.22429 | 34884 ft | 639 kts | 68° |
| 2026-05-07 17:05 | 37.21346 | -83.17171 | 34997 ft | 642 kts | 68° |
| 2026-05-07 17:05 | 37.22857 | -83.11907 | 35001 ft | 640 kts | 68° |
| 2026-05-07 17:05 | 37.25856 | -83.01412 | 35011 ft | 642 kts | 68° |
| 2026-05-07 17:06 | 37.28891 | -82.90777 | 35061 ft | 651 kts | 68° |
| 2026-05-07 17:06 | 37.31954 | -82.79992 | 34962 ft | 656 kts | 68° |
| 2026-05-07 17:07 | 37.34971 | -82.69289 | 34816 ft | 642 kts | 69° |
| 2026-05-07 17:07 | 37.37913 | -82.58817 | 34659 ft | 630 kts | 68° |
| 2026-05-07 17:08 | 37.40820 | -82.48509 | 34385 ft | 622 kts | 68° |
| 2026-05-07 17:08 | 37.42259 | -82.43384 | 34153 ft | 622 kts | 69° |
| 2026-05-07 17:08 | 37.43693 | -82.38239 | 33827 ft | 623 kts | 69° |
| 2026-05-07 17:09 | 37.45126 | -82.33086 | 33482 ft | 624 kts | 69° |
| 2026-05-07 17:09 | 37.46557 | -82.27934 | 33243 ft | 623 kts | 69° |
| 2026-05-07 17:09 | 37.47973 | -82.22788 | 33013 ft | 622 kts | 69° |
| 2026-05-07 17:09 | 37.49406 | -82.17651 | 33017 ft | 622 kts | 69° |
| 2026-05-07 17:10 | 37.52271 | -82.07319 | 33010 ft | 627 kts | 69° |
| 2026-05-07 17:10 | 37.55151 | -81.96923 | 33021 ft | 628 kts | 69° |
| 2026-05-07 17:11 | 37.58010 | -81.86498 | 33001 ft | 630 kts | 69° |
| 2026-05-07 17:11 | 37.60872 | -81.76049 | 33014 ft | 630 kts | 70° |
| 2026-05-07 17:12 | 37.63714 | -81.65601 | 32979 ft | 629 kts | 70° |
| 2026-05-07 17:12 | 37.66502 | -81.55248 | 33059 ft | 626 kts | 70° |
| 2026-05-07 17:13 | 37.69297 | -81.44869 | 33043 ft | 623 kts | 70° |
| 2026-05-07 17:13 | 37.72093 | -81.34497 | 32984 ft | 624 kts | 70° |
| 2026-05-07 17:14 | 37.74853 | -81.24123 | 32986 ft | 623 kts | 70° |
| 2026-05-07 17:14 | 37.77420 | -81.13687 | 32992 ft | 622 kts | 77° |
| 2026-05-07 17:15 | 37.78801 | -81.02936 | 32997 ft | 617 kts | 89° |
| 2026-05-07 17:15 | 37.79359 | -80.92139 | 33025 ft | 616 kts | 89° |
| 2026-05-07 17:16 | 37.80034 | -80.81315 | 32994 ft | 619 kts | 88° |
| 2026-05-07 17:16 | 37.80765 | -80.70438 | 32991 ft | 621 kts | 88° |
| 2026-05-07 17:17 | 37.81471 | -80.59557 | 33014 ft | 621 kts | 89° |
| 2026-05-07 17:17 | 37.82160 | -80.48654 | 32960 ft | 622 kts | 89° |
| 2026-05-07 17:18 | 37.82846 | -80.37766 | 32972 ft | 621 kts | 89° |
| 2026-05-07 17:18 | 37.83525 | -80.26903 | 32970 ft | 619 kts | 89° |
| 2026-05-07 17:19 | 37.84188 | -80.16138 | 32946 ft | 618 kts | 90° |
| 2026-05-07 17:19 | 37.84848 | -80.05212 | 32946 ft | 618 kts | 89° |
| 2026-05-07 17:20 | 37.85491 | -79.94458 | 32961 ft | 617 kts | 89° |
| 2026-05-07 17:20 | 37.86125 | -79.83630 | 32959 ft | 616 kts | 89° |
| 2026-05-07 17:21 | 37.86750 | -79.72811 | 32943 ft | 616 kts | 90° |
| 2026-05-07 17:21 | 37.86996 | -79.67405 | 33077 ft | 615 kts | 91° |
| 2026-05-07 17:21 | 37.87165 | -79.62013 | 33104 ft | 614 kts | 92° |
| 2026-05-07 17:22 | 37.87441 | -79.51203 | 33113 ft | 615 kts | 92° |
| 2026-05-07 17:22 | 37.87769 | -79.40383 | 33068 ft | 615 kts | 92° |
| 2026-05-07 17:23 | 37.88297 | -79.29583 | 33069 ft | 617 kts | 85° |
| 2026-05-07 17:23 | 37.89571 | -79.18851 | 33019 ft | 617 kts | 83° |
| 2026-05-07 17:24 | 37.90917 | -79.08140 | 32979 ft | 616 kts | 83° |
| 2026-05-07 17:24 | 37.92195 | -78.97421 | 32954 ft | 613 kts | 84° |
| 2026-05-07 17:25 | 37.93421 | -78.86747 | 32961 ft | 613 kts | 84° |
| 2026-05-07 17:25 | 37.94634 | -78.76062 | 32963 ft | 612 kts | 84° |
| 2026-05-07 17:26 | 37.95847 | -78.65386 | 32926 ft | 610 kts | 84° |
| 2026-05-07 17:26 | 37.97042 | -78.54766 | 32959 ft | 608 kts | 84° |
| 2026-05-07 17:27 | 37.98229 | -78.44149 | 32949 ft | 608 kts | 84° |
| 2026-05-07 17:27 | 37.99404 | -78.33548 | 32967 ft | 607 kts | 84° |
| 2026-05-07 17:28 | 38.00647 | -78.22954 | 32960 ft | 609 kts | 79° |
| 2026-05-07 17:28 | 38.03191 | -78.12724 | 32975 ft | 609 kts | 65° |
| 2026-05-07 17:29 | 38.07132 | -78.03263 | 32976 ft | 606 kts | 53° |
| 2026-05-07 17:29 | 38.11726 | -77.94284 | 32921 ft | 607 kts | 53° |
| 2026-05-07 17:30 | 38.16294 | -77.85294 | 32960 ft | 607 kts | 53° |
| 2026-05-07 17:30 | 38.20804 | -77.76206 | 32961 ft | 607 kts | 54° |
| 2026-05-07 17:31 | 38.25268 | -77.67109 | 33029 ft | 608 kts | 54° |
| 2026-05-07 17:31 | 38.29721 | -77.58022 | 32915 ft | 610 kts | 54° |
| 2026-05-07 17:32 | 38.34206 | -77.48861 | 32953 ft | 609 kts | 54° |
| 2026-05-07 17:32 | 38.37956 | -77.41187 | 32951 ft | 609 kts | 54° |
| 2026-05-07 17:33 | 38.43144 | -77.30537 | 33032 ft | 608 kts | 54° |
| 2026-05-07 17:33 | 38.47603 | -77.21358 | 32941 ft | 609 kts | 55° |
| 2026-05-07 17:34 | 38.52059 | -77.12156 | 32976 ft | 609 kts | 55° |
| 2026-05-07 17:34 | 38.56501 | -77.02955 | 32969 ft | 608 kts | 55° |
| 2026-05-07 17:35 | 38.60931 | -76.93753 | 32969 ft | 608 kts | 55° |
| 2026-05-07 17:35 | 38.65364 | -76.84522 | 32939 ft | 610 kts | 55° |
| 2026-05-07 17:36 | 38.69794 | -76.75267 | 32952 ft | 610 kts | 55° |
| 2026-05-07 17:36 | 38.74702 | -76.66495 | 32956 ft | 602 kts | 43° |
| 2026-05-07 17:37 | 38.80547 | -76.58925 | 33024 ft | 591 kts | 32° |
| 2026-05-07 17:37 | 38.87045 | -76.52570 | 32960 ft | 587 kts | 27° |
| 2026-05-07 17:38 | 38.93600 | -76.46323 | 32961 ft | 587 kts | 28° |
| 2026-05-07 17:38 | 39.00100 | -76.39941 | 32953 ft | 588 kts | 28° |
| 2026-05-07 17:39 | 39.06412 | -76.33260 | 32641 ft | 587 kts | 34° |
| 2026-05-07 17:39 | 39.09421 | -76.29730 | 32053 ft | 586 kts | 35° |
| 2026-05-07 17:39 | 39.12417 | -76.26161 | 31410 ft | 585 kts | 36° |
| 2026-05-07 17:40 | 39.15375 | -76.22644 | 30761 ft | 585 kts | 36° |
| 2026-05-07 17:40 | 39.18371 | -76.19111 | 30131 ft | 585 kts | 36° |
| 2026-05-07 17:40 | 39.21361 | -76.15606 | 29334 ft | 576 kts | 35° |
| 2026-05-07 17:40 | 39.24350 | -76.12111 | 28290 ft | 569 kts | 36° |
| 2026-05-07 17:41 | 39.27225 | -76.08744 | 27369 ft | 562 kts | 36° |
| 2026-05-07 17:41 | 39.30096 | -76.05374 | 26493 ft | 554 kts | 36° |
| 2026-05-07 17:41 | 39.32924 | -76.02046 | 25662 ft | 546 kts | 36° |
| 2026-05-07 17:41 | 39.35710 | -75.98763 | 24852 ft | 538 kts | 37° |
| 2026-05-07 17:42 | 39.38457 | -75.95524 | 24072 ft | 531 kts | 37° |
| 2026-05-07 17:42 | 39.41163 | -75.92331 | 23343 ft | 522 kts | 37° |
| 2026-05-07 17:42 | 39.43842 | -75.89167 | 22853 ft | 518 kts | 37° |
| 2026-05-07 17:42 | 39.46489 | -75.86040 | 22387 ft | 513 kts | 37° |
| 2026-05-07 17:43 | 39.49114 | -75.82935 | 21928 ft | 509 kts | 37° |
| 2026-05-07 17:43 | 39.51715 | -75.79854 | 21489 ft | 505 kts | 37° |
| 2026-05-07 17:43 | 39.54291 | -75.76800 | 21018 ft | 500 kts | 37° |
| 2026-05-07 17:43 | 39.56847 | -75.73765 | 20602 ft | 496 kts | 37° |
| 2026-05-07 17:44 | 39.59383 | -75.70751 | 20195 ft | 492 kts | 37° |
| 2026-05-07 17:44 | 39.61896 | -75.67761 | 19762 ft | 489 kts | 37° |
| 2026-05-07 17:44 | 39.64388 | -75.64794 | 19318 ft | 485 kts | 37° |
| 2026-05-07 17:44 | 39.66866 | -75.61840 | 18865 ft | 482 kts | 37° |
| 2026-05-07 17:45 | 39.69326 | -75.58902 | 18431 ft | 479 kts | 37° |
| 2026-05-07 17:45 | 39.71757 | -75.55981 | 17943 ft | 475 kts | 38° |
| 2026-05-07 17:45 | 39.74167 | -75.53075 | 17456 ft | 471 kts | 38° |
| 2026-05-07 17:45 | 39.76556 | -75.50192 | 17026 ft | 465 kts | 38° |
| 2026-05-07 17:46 | 39.78908 | -75.47349 | 16638 ft | 459 kts | 38° |
| 2026-05-07 17:46 | 39.81230 | -75.44543 | 16211 ft | 453 kts | 38° |
| 2026-05-07 17:46 | 39.83530 | -75.41763 | 15797 ft | 449 kts | 38° |
| 2026-05-07 17:46 | 39.85807 | -75.39009 | 15341 ft | 446 kts | 38° |
| 2026-05-07 17:47 | 39.88069 | -75.36270 | 14921 ft | 442 kts | 39° |
| 2026-05-07 17:47 | 39.90307 | -75.33557 | 14491 ft | 437 kts | 39° |
| 2026-05-07 17:47 | 39.92523 | -75.30870 | 14076 ft | 433 kts | 39° |
| 2026-05-07 17:47 | 39.94715 | -75.28208 | 13632 ft | 429 kts | 39° |
| 2026-05-07 17:48 | 39.96887 | -75.25569 | 13196 ft | 425 kts | 39° |
| 2026-05-07 17:48 | 39.99039 | -75.22949 | 12738 ft | 421 kts | 39° |
| 2026-05-07 17:48 | 40.01167 | -75.20356 | 12291 ft | 416 kts | 39° |
| 2026-05-07 17:48 | 40.03272 | -75.17790 | 11865 ft | 412 kts | 39° |
| 2026-05-07 17:49 | 40.05359 | -75.15244 | 11454 ft | 409 kts | 39° |
| 2026-05-07 17:49 | 40.07430 | -75.12716 | 11032 ft | 406 kts | 39° |
| 2026-05-07 17:49 | 40.09478 | -75.10214 | 10794 ft | 398 kts | 39° |
| 2026-05-07 17:49 | 40.11472 | -75.07773 | 10628 ft | 388 kts | 39° |
| 2026-05-07 17:50 | 40.12762 | -75.06192 | 10495 ft | 381 kts | 39° |
| 2026-05-07 17:50 | 40.14668 | -75.03855 | 10339 ft | 371 kts | 39° |
| 2026-05-07 17:50 | 40.16524 | -75.01578 | 10205 ft | 361 kts | 38° |
| 2026-05-07 17:50 | 40.18335 | -74.99356 | 10031 ft | 352 kts | 38° |
| 2026-05-07 17:51 | 40.20099 | -74.97192 | 9815 ft | 344 kts | 38° |
| 2026-05-07 17:51 | 40.21825 | -74.95073 | 9644 ft | 336 kts | 38° |
| 2026-05-07 17:51 | 40.23501 | -74.93012 | 9499 ft | 325 kts | 38° |
| 2026-05-07 17:51 | 40.25159 | -74.90975 | 8926 ft | 330 kts | 38° |
| 2026-05-07 17:52 | 40.26752 | -74.88878 | 8551 ft | 318 kts | 42° |
| 2026-05-07 17:52 | 40.28216 | -74.86795 | 8171 ft | 306 kts | 42° |
| 2026-05-07 17:52 | 40.29621 | -74.84780 | 7868 ft | 292 kts | 42° |
| 2026-05-07 17:52 | 40.30965 | -74.82872 | 7635 ft | 280 kts | 42° |
| 2026-05-07 17:53 | 40.32305 | -74.80987 | 7476 ft | 285 kts | 42° |
| 2026-05-07 17:53 | 40.33668 | -74.79075 | 7280 ft | 288 kts | 42° |
| 2026-05-07 17:53 | 40.35027 | -74.77163 | 7093 ft | 284 kts | 42° |
| 2026-05-07 17:53 | 40.36356 | -74.75291 | 6860 ft | 276 kts | 42° |
| 2026-05-07 17:54 | 40.37641 | -74.73475 | 6659 ft | 267 kts | 44° |
| 2026-05-07 17:54 | 40.38623 | -74.71429 | 6464 ft | 267 kts | 61° |
| 2026-05-07 17:54 | 40.39314 | -74.69150 | 6294 ft | 272 kts | 65° |
| 2026-05-07 17:54 | 40.39965 | -74.66804 | 6079 ft | 274 kts | 66° |
| 2026-05-07 17:55 | 40.40618 | -74.64457 | 5872 ft | 273 kts | 66° |
| 2026-05-07 17:55 | 40.41279 | -74.62136 | 5669 ft | 268 kts | 66° |
| 2026-05-07 17:55 | 40.41934 | -74.59879 | 5465 ft | 262 kts | 66° |
| 2026-05-07 17:55 | 40.42588 | -74.57658 | 5275 ft | 259 kts | 66° |
| 2026-05-07 17:56 | 40.43239 | -74.55467 | 5102 ft | 257 kts | 66° |
| 2026-05-07 17:56 | 40.43892 | -74.53282 | 4920 ft | 256 kts | 67° |
| 2026-05-07 17:56 | 40.44540 | -74.51113 | 4734 ft | 255 kts | 67° |
| 2026-05-07 17:56 | 40.45188 | -74.48949 | 4553 ft | 254 kts | 67° |
| 2026-05-07 17:57 | 40.45836 | -74.46790 | 4367 ft | 253 kts | 67° |
| 2026-05-07 17:57 | 40.46263 | -74.45367 | 4256 ft | 253 kts | 67° |
| 2026-05-07 17:57 | 40.47126 | -74.42490 | 4015 ft | 254 kts | 67° |
| 2026-05-07 17:57 | 40.47773 | -74.40335 | 3834 ft | 253 kts | 67° |
| 2026-05-07 17:58 | 40.48419 | -74.38186 | 3646 ft | 253 kts | 66° |
| 2026-05-07 17:58 | 40.49064 | -74.36034 | 3479 ft | 254 kts | 67° |
| 2026-05-07 17:58 | 40.49708 | -74.33882 | 3273 ft | 250 kts | 67° |
| 2026-05-07 17:58 | 40.50331 | -74.31801 | 3111 ft | 240 kts | 68° |
| 2026-05-07 17:59 | 40.50930 | -74.29797 | 2923 ft | 232 kts | 67° |
| 2026-05-07 17:59 | 40.51732 | -74.27997 | 2837 ft | 232 kts | 40° |
| 2026-05-07 17:59 | 40.53058 | -74.26843 | 2800 ft | 227 kts | 26° |
| 2026-05-07 17:59 | 40.54443 | -74.25888 | 2799 ft | 222 kts | 25° |
| 2026-05-07 18:00 | 40.55801 | -74.25011 | 2679 ft | 216 kts | 22° |
| 2026-05-07 18:00 | 40.57134 | -74.24211 | 2423 ft | 207 kts | 24° |
| 2026-05-07 18:00 | 40.58394 | -74.23381 | 2119 ft | 200 kts | 24° |
| 2026-05-07 18:00 | 40.59618 | -74.22596 | 1861 ft | 186 kts | 24° |
| 2026-05-07 18:01 | 40.60733 | -74.21886 | 1635 ft | 172 kts | 23° |
| 2026-05-07 18:01 | 40.61755 | -74.21240 | 1391 ft | 157 kts | 23° |
| 2026-05-07 18:01 | 40.62685 | -74.20648 | 1224 ft | 147 kts | 24° |
| 2026-05-07 18:01 | 40.63620 | -74.20053 | 1007 ft | 150 kts | 25° |
| 2026-05-07 18:02 | 40.65439 | -74.18888 | 597 ft | 143 kts | 23° |
| 2026-05-07 18:02 | 40.66334 | -74.18331 | 424 ft | 142 kts | 24° |
| 2026-05-07 18:02 | 40.67243 | -74.17739 | 243 ft | 145 kts | 20° |
| 2026-05-07 18:03 | 40.68137 | -74.17177 | 55 ft | 139 kts | 18° |
| 2026-05-07 18:03 | 40.68928 | -74.16684 | 27 ft | 109 kts | 26° |
| 2026-05-07 18:03 | 40.69350 | -74.16442 | 29 ft | 35 kts | 1° |
| 2026-05-07 18:03 | 40.69481 | -74.16475 | 27 ft | 11 kts | 316° |
| 2026-05-07 18:04 | 40.69456 | -74.16560 | 27 ft | 12 kts | 210° |
| 2026-05-07 18:04 | 40.69384 | -74.16612 | 27 ft | 12 kts | 207° |
| 2026-05-07 18:04 | 40.69309 | -74.16663 | 28 ft | 12 kts | 207° |
| 2026-05-07 18:04 | 40.69282 | -74.16681 | 28 ft | 0 kts | 207° |
| 2026-05-07 18:05 | 40.69236 | -74.16708 | 28 ft | 18 kts | 205° |
| 2026-05-07 18:05 | 40.69117 | -74.16781 | 27 ft | 19 kts | 205° |
| 2026-05-07 18:05 | 40.69031 | -74.16880 | 27 ft | 17 kts | 270° |
| 2026-05-07 18:06 | 40.69074 | -74.17023 | 26 ft | 17 kts | 295° |
| 2026-05-07 18:06 | 40.69124 | -74.17159 | 31 ft | 15 kts | 294° |
| 2026-05-07 18:06 | 40.69087 | -74.17240 | 26 ft | 11 kts | 209° |
| 2026-05-07 18:06 | 40.68991 | -74.17302 | 26 ft | 20 kts | 206° |
| 2026-05-07 18:07 | 40.68864 | -74.17383 | 27 ft | 20 kts | 205° |
| 2026-05-07 18:07 | 40.68736 | -74.17464 | 27 ft | 20 kts | 205° |
| 2026-05-07 18:07 | 40.68604 | -74.17549 | 27 ft | 24 kts | 206° |
| 2026-05-07 18:07 | 40.68457 | -74.17642 | 27 ft | 23 kts | 206° |
| 2026-05-07 18:08 | 40.68311 | -74.17735 | 27 ft | 23 kts | 206° |
| 2026-05-07 18:08 | 40.68166 | -74.17827 | 27 ft | 23 kts | 205° |
| 2026-05-07 18:08 | 40.68020 | -74.17920 | 27 ft | 23 kts | 205° |
| 2026-05-07 18:08 | 40.67885 | -74.18006 | 27 ft | 17 kts | 206° |
| 2026-05-07 18:09 | 40.67777 | -74.18074 | 27 ft | 17 kts | 205° |
| 2026-05-07 18:09 | 40.67695 | -74.18142 | 27 ft | 11 kts | 248° |
| 2026-05-07 18:09 | 40.67707 | -74.18208 | 27 ft | 3 kts | 293° |
| 2026-05-07 18:09 | 40.67715 | -74.18233 | 27 ft | 3 kts | 292° |
| 2026-05-07 18:10 | 40.67710 | -74.18260 | 27 ft | 3 kts | 239° |
| 2026-05-07 18:10 | 40.67691 | -74.18276 | 27 ft | 3 kts | 211° |
| 2026-05-07 18:10 | 40.67669 | -74.18290 | 27 ft | 3 kts | 205° |
| 2026-05-07 18:10 | 40.67658 | -74.18297 | 27 ft | 0 kts | 206° |